Time;durP1;ratioP1;P1;durP2;ratioP2;P2;SDS_P1;SDS_P2;PMS_P1;PMS_P2;Temp;Humidity;BMP_temperature;BMP_pressure;BME280_temperature;BME280_humidity;BME280_pressure;Samples;Min_cycle;Max_cycle;Signal;HPM_P1;HPM_P2
2023/06/28 00:01:36;;;;;;;11.13;2.72;;;;;;;;;;5064924;28;20093;-59
2023/06/28 00:04:02;;;;;;;6.23;2.60;;;;;;;;;;4990652;28;20064;-60
2023/06/28 00:06:27;;;;;;;4.13;2.50;;;;;;;;;;4996835;28;20050;-59
2023/06/28 00:08:53;;;;;;;9.63;3.50;;;;;;;;;;4985750;28;20124;-59
2023/06/28 00:11:18;;;;;;;10.30;3.25;;;;;;;;;;5000729;28;20255;-60
2023/06/28 00:13:43;;;;;;;3.45;2.72;;;;;;;;;;4996889;28;20022;-59
2023/06/28 00:16:08;;;;;;;5.88;2.70;;;;;;;;;;4984256;28;20039;-60
2023/06/28 00:18:35;;;;;;;8.30;2.67;;;;;;;;;;5002444;28;20455;-59
2023/06/28 00:21:02;;;;;;;7.50;4.20;;;;;;;;;;5000624;28;20334;-59
2023/06/28 00:23:27;;;;;;;3.53;2.72;;;;;;;;;;5002185;28;20386;-60
2023/06/28 00:25:53;;;;;;;6.30;2.83;;;;;;;;;;5000143;28;20022;-60
2023/06/28 00:28:18;;;;;;;7.13;2.90;;;;;;;;;;5001581;28;20022;-60
2023/06/28 00:30:43;;;;;;;5.90;2.90;;;;;;;;;;5001913;28;20550;-58
2023/06/28 00:33:08;;;;;;;7.57;3.28;;;;;;;;;;4999960;28;20030;-60
2023/06/28 00:35:34;;;;;;;10.60;3.75;;;;;;;;;;5002067;28;20029;-60
2023/06/28 00:37:59;;;;;;;6.30;3.30;;;;;;;;;;5000267;28;20030;-60
2023/06/28 00:40:24;;;;;;;8.43;3.40;;;;;;;;;;5002090;28;20240;-58
2023/06/28 00:42:49;;;;;;;4.07;2.80;;;;;;;;;;4999010;28;20694;-59
2023/06/28 00:45:15;;;;;;;8.53;3.07;;;;;;;;;;4991014;28;20072;-58
2023/06/28 00:47:42;;;;;;;5.55;3.08;;;;;;;;;;4996806;28;20732;-57
2023/06/28 00:50:07;;;;;;;3.85;3.10;;;;;;;;;;5001719;28;20091;-60
2023/06/28 00:52:33;;;;;;;7.47;3.05;;;;;;;;;;4989996;28;20773;-60
2023/06/28 00:54:59;;;;;;;5.75;3.25;;;;;;;;;;4985202;28;20471;-60
2023/06/28 00:57:24;;;;;;;11.32;3.13;;;;;;;;;;4990160;28;20029;-60
2023/06/28 00:59:50;;;;;;;7.47;3.30;;;;;;;;;;5001649;28;20030;-58
2023/06/28 01:02:15;;;;;;;5.45;3.40;;;;;;;;;;4993330;28;20043;-60
2023/06/28 01:04:40;;;;;;;7.75;2.78;;;;;;;;;;4985216;28;20035;-60
2023/06/28 01:07:08;;;;;;;8.88;3.88;;;;;;;;;;4985849;28;20119;-60
2023/06/28 01:09:33;;;;;;;9.25;3.25;;;;;;;;;;4988430;28;20027;-59
2023/06/28 01:11:59;;;;;;;7.38;3.33;;;;;;;;;;4999669;28;20036;-59
2023/06/28 01:14:25;;;;;;;7.93;3.00;;;;;;;;;;4994034;28;20384;-60
2023/06/28 01:16:54;;;;;;;6.65;2.97;;;;;;;;;;4990658;28;20065;-60
2023/06/28 01:19:19;;;;;;;;;;;;;;;;;;5004161;28;20034;-59
2023/06/28 01:21:45;;;;;;;8.48;3.10;;;;;;;;;;5001413;28;19962;-60
2023/06/28 01:24:11;;;;;;;6.22;3.10;;;;;;;;;;5003078;28;20057;-60
2023/06/28 01:26:37;;;;;;;5.43;3.42;;;;;;;;;;5000534;28;20467;-60
2023/06/28 01:29:03;;;;;;;9.48;3.55;;;;;;;;;;5003875;28;20030;-58
2023/06/28 01:31:30;;;;;;;4.25;3.00;;;;;;;;;;4998947;28;20053;-60
2023/06/28 01:33:55;;;;;;;7.47;3.67;;;;;;;;;;5003481;28;20245;-59
2023/06/28 01:36:20;;;;;;;5.93;3.17;;;;;;;;;;4999795;28;20341;-58
2023/06/28 01:38:46;;;;;;;11.27;4.40;;;;;;;;;;5000769;28;20026;-57
2023/06/28 01:41:11;;;;;;;5.95;3.05;;;;;;;;;;5000168;28;20299;-60
2023/06/28 01:43:37;;;;;;;7.72;3.17;;;;;;;;;;5000474;28;20026;-59
2023/06/28 01:46:02;;;;;;;5.57;3.17;;;;;;;;;;4998743;28;20086;-60
2023/06/28 01:48:27;;;;;;;7.43;2.72;;;;;;;;;;5000856;28;20079;-59
2023/06/28 01:50:53;;;;;;;5.93;3.30;;;;;;;;;;4999881;28;20026;-60
2023/06/28 01:53:18;;;;;;;10.18;3.88;;;;;;;;;;4999593;28;20482;-60
2023/06/28 01:55:43;;;;;;;6.68;3.30;;;;;;;;;;4999514;28;20097;-59
2023/06/28 01:58:09;;;;;;;10.52;3.85;;;;;;;;;;4998926;28;20055;-59
2023/06/28 02:00:34;;;;;;;8.98;2.83;;;;;;;;;;4999728;28;20078;-60
2023/06/28 02:02:59;;;;;;;7.53;3.13;;;;;;;;;;4982194;28;20106;-60
2023/06/28 02:05:25;;;;;;;7.72;3.17;;;;;;;;;;4980988;28;20549;-60
2023/06/28 02:07:50;;;;;;;7.10;3.53;;;;;;;;;;4996263;28;20473;-59
2023/06/28 02:10:16;;;;;;;9.90;3.33;;;;;;;;;;4999817;28;20041;-59
2023/06/28 02:12:41;;;;;;;6.10;3.13;;;;;;;;;;4999058;28;20057;-58
2023/06/28 02:15:08;;;;;;;4.75;3.08;;;;;;;;;;4984719;28;20518;-59
2023/06/28 02:17:35;;;;;;;5.43;3.25;;;;;;;;;;4986227;28;20033;-59
2023/06/28 02:20:00;;;;;;;8.07;3.42;;;;;;;;;;5102936;27;20029;-59
2023/06/28 02:22:26;;;;;;;5.10;3.17;;;;;;;;;;5000594;28;20450;-60
2023/06/28 02:24:52;;;;;;;4.97;3.53;;;;;;;;;;5001342;28;20394;-59
2023/06/28 02:27:17;;;;;;;6.32;3.40;;;;;;;;;;4989620;28;20105;-60
2023/06/28 02:29:42;;;;;;;8.40;3.70;;;;;;;;;;4984884;28;20025;-59
2023/06/28 02:32:08;;;;;;;9.77;3.33;;;;;;;;;;4999950;28;20110;-59
2023/06/28 02:34:33;;;;;;;5.22;3.35;;;;;;;;;;5001113;28;20375;-60
2023/06/28 02:36:59;;;;;;;10.13;3.85;;;;;;;;;;4991676;28;20038;-59
2023/06/28 02:39:24;;;;;;;7.05;3.60;;;;;;;;;;5060591;28;20037;-60
2023/06/28 02:41:50;;;;;;;9.05;4.03;;;;;;;;;;4998629;28;20110;-59
2023/06/28 02:44:15;;;;;;;7.78;3.88;;;;;;;;;;4999985;28;20052;-59
2023/06/28 02:46:40;;;;;;;7.82;3.13;;;;;;;;;;4996397;28;20383;-59
2023/06/28 02:49:06;;;;;;;4.20;3.13;;;;;;;;;;4999095;28;20478;-59
2023/06/28 02:51:31;;;;;;;9.60;3.08;;;;;;;;;;4994079;28;20107;-59
2023/06/28 02:53:56;;;;;;;9.10;3.40;;;;;;;;;;4980254;28;20491;-58
2023/06/28 02:56:23;;;;;;;6.40;3.50;;;;;;;;;;4983626;28;20032;-60
2023/06/28 02:58:48;;;;;;;5.18;3.03;;;;;;;;;;4980486;28;20738;-60
2023/06/28 03:01:14;;;;;;;6.88;3.50;;;;;;;;;;4984735;28;20042;-58
2023/06/28 03:03:40;;;;;;;9.95;3.17;;;;;;;;;;4980039;28;20105;-58
2023/06/28 03:06:05;;;;;;;3.70;2.60;;;;;;;;;;4992688;28;21919;-60
2023/06/28 03:08:30;;;;;;;11.30;3.35;;;;;;;;;;5003155;28;20101;-59
2023/06/28 03:10:55;;;;;;;6.10;3.28;;;;;;;;;;5002541;28;20022;-59
2023/06/28 03:13:21;;;;;;;5.13;2.80;;;;;;;;;;5001610;28;20097;-60
2023/06/28 03:15:46;;;;;;;6.68;3.35;;;;;;;;;;4983742;28;20034;-59
2023/06/28 03:18:11;;;;;;;4.57;2.88;;;;;;;;;;5002254;28;20261;-59
2023/06/28 03:20:37;;;;;;;7.60;3.17;;;;;;;;;;5002449;28;20029;-59
2023/06/28 03:23:02;;;;;;;6.53;2.90;;;;;;;;;;4996073;28;20026;-60
2023/06/28 03:25:28;;;;;;;3.45;2.72;;;;;;;;;;5084243;28;20260;-60
2023/06/28 03:27:53;;;;;;;4.78;2.70;;;;;;;;;;4984568;28;20083;-60
2023/06/28 03:30:18;;;;;;;9.30;3.45;;;;;;;;;;4983264;28;20101;-58
2023/06/28 03:32:43;;;;;;;8.40;2.83;;;;;;;;;;4998098;28;20437;-59
2023/06/28 03:35:09;;;;;;;8.02;3.45;;;;;;;;;;5002139;28;20478;-59
2023/06/28 03:37:34;;;;;;;8.13;3.30;;;;;;;;;;5001199;28;20034;-59
2023/06/28 03:39:59;;;;;;;5.50;3.07;;;;;;;;;;5004638;28;20079;-59
2023/06/28 03:42:25;;;;;;;5.28;2.85;;;;;;;;;;5004894;28;20991;-60
2023/06/28 03:44:50;;;;;;;8.82;3.25;;;;;;;;;;5005033;28;20542;-59
2023/06/28 03:47:15;;;;;;;4.93;3.05;;;;;;;;;;5004648;28;20045;-60
2023/06/28 03:49:40;;;;;;;5.85;3.17;;;;;;;;;;5005664;28;20621;-59
2023/06/28 03:52:06;;;;;;;8.32;3.17;;;;;;;;;;5001152;28;20101;-59
2023/06/28 03:54:32;;;;;;;8.07;3.03;;;;;;;;;;5001704;28;20069;-59
2023/06/28 03:56:58;;;;;;;5.75;3.40;;;;;;;;;;4992853;28;20031;-60
2023/06/28 03:59:23;;;;;;;10.82;3.22;;;;;;;;;;4983225;28;20049;-59
2023/06/28 04:01:48;;;;;;;6.75;3.20;;;;;;;;;;4989757;28;20515;-58
2023/06/28 04:04:14;;;;;;;9.67;3.07;;;;;;;;;;5002339;28;20113;-59
2023/06/28 04:06:39;;;;;;;9.73;2.95;;;;;;;;;;4998686;28;20282;-59
2023/06/28 04:09:04;;;;;;;7.90;2.97;;;;;;;;;;4982564;28;20083;-56
2023/06/28 04:11:30;;;;;;;5.57;3.15;;;;;;;;;;4987058;28;20463;-59
2023/06/28 04:13:55;;;;;;;5.40;2.90;;;;;;;;;;4987475;28;20022;-59
2023/06/28 04:16:20;;;;;;;10.85;3.15;;;;;;;;;;4986253;28;20086;-59
2023/06/28 04:18:45;;;;;;;8.83;3.57;;;;;;;;;;5001165;28;20022;-57
2023/06/28 04:21:11;;;;;;;6.33;3.07;;;;;;;;;;5000865;28;20329;-58
2023/06/28 04:23:38;;;;;;;10.48;3.05;;;;;;;;;;4983126;28;20272;-59
2023/06/28 04:26:03;;;;;;;17.83;16.05;;;;;;;;;;4987270;28;20051;-58
2023/06/28 04:28:28;;;;;;;5.22;3.15;;;;;;;;;;4986452;28;20015;-58
2023/06/28 04:30:53;;;;;;;9.33;3.47;;;;;;;;;;4982210;28;20026;-59
2023/06/28 04:33:22;;;;;;;14.32;3.30;;;;;;;;;;4992537;28;20358;-59
2023/06/28 04:35:48;;;;;;;5.47;2.80;;;;;;;;;;5002156;28;20084;-58
2023/06/28 04:38:14;;;;;;;7.15;2.92;;;;;;;;;;5001478;28;20082;-59
2023/06/28 04:40:39;;;;;;;8.40;3.05;;;;;;;;;;5001772;28;20113;-59
2023/06/28 04:43:09;;;;;;;11.60;3.20;;;;;;;;;;5001772;28;20113;-57
2023/06/28 04:45:36;;;;;;;4.80;3.38;;;;;;;;;;5073729;28;20056;-57
2023/06/28 04:48:05;;;;;;;4.80;3.30;;;;;;;;;;5065369;28;20695;-59
2023/06/28 04:50:31;;;;;;;4.85;3.10;;;;;;;;;;5067628;28;20020;-58
2023/06/28 04:52:56;;;;;;;15.15;3.55;;;;;;;;;;5066964;28;20056;-58
2023/06/28 04:55:22;;;;;;;5.97;2.85;;;;;;;;;;5064418;28;20174;-58
2023/06/28 04:57:47;;;;;;;7.03;2.92;;;;;;;;;;5078485;28;20036;-59
2023/06/28 05:00:12;;;;;;;8.70;3.30;;;;;;;;;;5084305;28;20020;-58
2023/06/28 05:02:38;;;;;;;5.72;3.10;;;;;;;;;;5075975;28;20511;-60
2023/06/28 05:05:03;;;;;;;5.67;3.30;;;;;;;;;;5063891;28;20028;-59
2023/06/28 05:07:28;;;;;;;8.13;3.25;;;;;;;;;;5067647;28;20252;-58
2023/06/28 05:09:54;;;;;;;6.28;3.30;;;;;;;;;;5081321;28;20260;-58
2023/06/28 05:12:19;;;;;;;5.68;2.95;;;;;;;;;;5079834;28;20070;-59
2023/06/28 05:14:45;;;;;;;8.30;3.22;;;;;;;;;;5063284;28;20025;-59
2023/06/28 05:17:10;;;;;;;7.20;3.60;;;;;;;;;;5064103;28;20458;-62
2023/06/28 05:19:36;;;;;;;10.55;3.67;;;;;;;;;;5071579;28;20752;-59
2023/06/28 05:22:01;;;;;;;7.50;3.13;;;;;;;;;;5083821;28;20455;-59
2023/06/28 05:24:26;;;;;;;12.65;3.60;;;;;;;;;;5079571;28;20026;-56
2023/06/28 05:26:52;;;;;;;7.43;3.63;;;;;;;;;;5063487;28;20031;-60
2023/06/28 05:29:19;;;;;;;13.35;3.30;;;;;;;;;;5063289;28;20262;-59
2023/06/28 05:31:44;;;;;;;6.95;3.17;;;;;;;;;;5063491;28;20020;-60
2023/06/28 05:34:11;;;;;;;7.88;3.03;;;;;;;;;;5062587;28;20025;-60
2023/06/28 05:36:36;;;;;;;11.25;3.33;;;;;;;;;;5066611;28;20396;-59
2023/06/28 05:39:02;;;;;;;9.27;4.13;;;;;;;;;;5063408;28;20020;-59
2023/06/28 05:41:27;;;;;;;6.18;3.42;;;;;;;;;;5063554;28;20016;-59
2023/06/28 05:43:53;;;;;;;12.13;3.90;;;;;;;;;;5070142;28;20569;-59
2023/06/28 05:46:18;;;;;;;9.40;4.60;;;;;;;;;;4987335;28;20282;-60
2023/06/28 05:48:45;;;;;;;4.20;3.00;;;;;;;;;;4998125;28;20251;-57
2023/06/28 05:51:12;;;;;;;5.47;3.88;;;;;;;;;;5012068;28;20014;-55
2023/06/28 05:53:41;;;;;;;6.55;3.42;;;;;;;;;;5064132;28;20034;-55
2023/06/28 05:56:06;;;;;;;7.97;3.47;;;;;;;;;;4991038;28;20034;-55
2023/06/28 05:58:32;;;;;;;9.93;3.75;;;;;;;;;;4996681;28;20042;-56
2023/06/28 06:00:57;;;;;;;10.68;4.28;;;;;;;;;;5004053;28;20157;-54
2023/06/28 06:03:23;;;;;;;6.80;3.83;;;;;;;;;;4998560;28;20030;-54
2023/06/28 06:05:48;;;;;;;8.25;3.45;;;;;;;;;;5000593;28;20029;-57
2023/06/28 06:08:14;;;;;;;13.13;3.92;;;;;;;;;;5065687;28;20034;-56
2023/06/28 06:10:39;;;;;;;10.73;3.88;;;;;;;;;;4990169;28;20034;-58
2023/06/28 06:13:04;;;;;;;18.20;4.20;;;;;;;;;;5004279;28;20051;-57
2023/06/28 06:15:30;;;;;;;8.23;3.40;;;;;;;;;;4995019;28;20310;-55
2023/06/28 06:17:55;;;;;;;11.60;4.05;;;;;;;;;;4997250;28;20476;-57
2023/06/28 06:20:20;;;;;;;5.22;3.53;;;;;;;;;;4995763;28;20040;-55
2023/06/28 06:22:45;;;;;;;6.35;3.08;;;;;;;;;;4998961;28;20091;-57
2023/06/28 06:25:11;;;;;;;7.13;3.60;;;;;;;;;;5005934;28;21606;-59
2023/06/28 06:27:37;;;;;;;197.93;125.88;;;;;;;;;;5026072;28;20068;-59
2023/06/28 06:30:02;;;;;;;215.40;145.52;;;;;;;;;;5025080;28;20034;-58
2023/06/28 06:32:28;;;;;;;159.32;121.93;;;;;;;;;;4987467;28;20026;-57
2023/06/28 06:35:02;;;;;;;7.45;3.25;;;;;;;;;;4990738;28;20117;-58
2023/06/28 06:37:28;;;;;;;169.02;156.73;;;;;;;;;;5034855;28;20486;-58
2023/06/28 06:39:56;;;;;;;50.92;47.47;;;;;;;;;;4992470;28;20030;-59
2023/06/28 06:42:21;;;;;;;7.33;3.57;;;;;;;;;;5001264;28;20837;-58
2023/06/28 06:44:47;;;;;;;5.20;3.08;;;;;;;;;;4992494;28;20098;-59
2023/06/28 06:47:12;;;;;;;130.50;120.05;;;;;;;;;;5065377;28;20037;-58
2023/06/28 06:49:38;;;;;;;4.78;3.10;;;;;;;;;;5000678;28;20153;-58
2023/06/28 06:52:03;;;;;;;7.03;3.90;;;;;;;;;;5001543;28;20450;-53
2023/06/28 06:54:31;;;;;;;5.43;2.90;;;;;;;;;;4988856;28;20038;-57
2023/06/28 06:57:01;;;;;;;49.22;44.17;;;;;;;;;;4986941;28;20458;-58
2023/06/28 06:59:27;;;;;;;8.35;3.40;;;;;;;;;;5086032;27;20024;-58
2023/06/28 07:01:53;;;;;;;7.30;4.38;;;;;;;;;;4994753;28;20033;-58
2023/06/28 07:04:18;;;;;;;7.90;2.97;;;;;;;;;;5010015;28;20026;-52
2023/06/28 07:09:28;;;;;;;1012.08;909.28;;;;;;;;;;5060718;28;20409;-57
2023/06/28 07:11:53;;;;;;;987.22;851.13;;;;;;;;;;5046510;28;20037;-56
2023/06/28 07:14:19;;;;;;;839.05;748.47;;;;;;;;;;5041721;28;20021;-57
2023/06/28 07:16:45;;;;;;;922.70;699.58;;;;;;;;;;5040691;28;20029;-54
2023/06/28 07:19:10;;;;;;;894.38;666.00;;;;;;;;;;5042590;28;20118;-57
2023/06/28 07:21:36;;;;;;;963.13;733.03;;;;;;;;;;5034084;28;20045;-56
2023/06/28 07:24:01;;;;;;;914.43;713.23;;;;;;;;;;5026778;28;20025;-53
2023/06/28 07:26:27;;;;;;;912.95;679.58;;;;;;;;;;5034810;28;20590;-56
2023/06/28 07:28:52;;;;;;;915.35;690.90;;;;;;;;;;5029687;28;20029;-57
2023/06/28 07:31:17;;;;;;;922.45;706.67;;;;;;;;;;5035299;28;20098;-57
2023/06/28 07:33:43;;;;;;;905.35;679.15;;;;;;;;;;5035006;28;20567;-57
2023/06/28 07:36:08;;;;;;;871.72;618.70;;;;;;;;;;5034111;28;20040;-55
2023/06/28 07:38:33;;;;;;;868.90;599.72;;;;;;;;;;5027787;28;20025;-58
2023/06/28 07:40:59;;;;;;;865.17;598.13;;;;;;;;;;5033783;28;20021;-60
2023/06/28 07:43:24;;;;;;;915.88;694.65;;;;;;;;;;5041349;28;20033;-58
2023/06/28 07:45:51;;;;;;;982.17;741.20;;;;;;;;;;5032934;28;20085;-58
2023/06/28 07:48:17;;;;;;;989.28;814.78;;;;;;;;;;5043473;28;20037;-58
2023/06/28 07:50:42;;;;;;;945.58;726.35;;;;;;;;;;5032410;28;20025;-55
2023/06/28 07:53:08;;;;;;;957.92;731.75;;;;;;;;;;5045392;28;20121;-56
2023/06/28 07:55:33;;;;;;;1013.88;761.28;;;;;;;;;;5044451;28;20074;-56
2023/06/28 07:57:58;;;;;;;992.78;777.28;;;;;;;;;;5041373;28;20067;-55
2023/06/28 08:00:24;;;;;;;980.13;758.83;;;;;;;;;;5048596;28;20052;-57
2023/06/28 08:02:49;;;;;;;940.92;747.75;;;;;;;;;;5026296;28;20029;-54
2023/06/28 08:05:15;;;;;;;935.08;714.60;;;;;;;;;;5026720;28;20369;-59
2023/06/28 08:07:40;;;;;;;909.10;690.47;;;;;;;;;;5035352;28;20140;-59
2023/06/28 08:10:06;;;;;;;944.05;755.80;;;;;;;;;;5026552;28;20444;-57
2023/06/28 08:12:31;;;;;;;953.67;673.15;;;;;;;;;;5035318;28;20489;-58
2023/06/28 08:14:56;;;;;;;7.15;1.77;;;;;;;;;;5023824;28;20516;-57
2023/06/28 08:17:22;;;;;;;14.23;12.73;;;;;;;;;;5022069;28;20030;-57
2023/06/28 08:19:47;;;;;;;9.23;3.58;;;;;;;;;;5028572;28;20267;-58
2023/06/28 08:22:12;;;;;;;157.73;126.73;;;;;;;;;;5020093;28;20029;-57
2023/06/28 08:24:38;;;;;;;8.55;2.13;;;;;;;;;;5018541;28;20316;-56
2023/06/28 08:27:03;;;;;;;4.97;1.70;;;;;;;;;;5021389;28;20462;-58
2023/06/28 08:29:28;;;;;;;9.80;1.90;;;;;;;;;;5013170;28;20084;-59
2023/06/28 08:31:54;;;;;;;12.13;2.75;;;;;;;;;;5016831;28;20057;-59
2023/06/28 08:34:20;;;;;;;5.23;1.97;;;;;;;;;;5014212;28;20117;-59
2023/06/28 08:39:16;;;;;;;945.72;766.42;;;;;;;;;;5053839;28;20225;-57
2023/06/28 08:41:43;;;;;;;695.85;568.10;;;;;;;;;;5034042;28;20544;-54
2023/06/28 08:44:09;;;;;;;944.95;794.42;;;;;;;;;;5037508;28;20065;-52
2023/06/28 08:48:58;;;;;;;3.03;1.52;;;;;;;;;;5078625;27;20419;-57
2023/06/28 08:51:24;;;;;;;4.72;2.38;;;;;;;;;;5067748;28;20114;-56
2023/06/28 08:53:50;;;;;;;6.45;1.50;;;;;;;;;;5076328;27;20274;-59
2023/06/28 08:56:15;;;;;;;6.95;1.65;;;;;;;;;;5079216;28;20405;-59
2023/06/28 08:58:41;;;;;;;4.17;1.60;;;;;;;;;;5073504;28;20524;-54
2023/06/28 09:01:08;;;;;;;4.50;1.65;;;;;;;;;;5065280;27;20265;-57
2023/06/28 09:03:36;;;;;;;5.78;1.70;;;;;;;;;;5065537;28;20023;-59
2023/06/28 09:06:02;;;;;;;3.25;1.48;;;;;;;;;;5072827;28;20500;-54
2023/06/28 09:08:27;;;;;;;3.08;1.48;;;;;;;;;;5071722;28;20039;-58
2023/06/28 09:10:53;;;;;;;9.13;1.77;;;;;;;;;;5068399;28;20068;-58
2023/06/28 09:13:19;;;;;;;1.85;1.33;;;;;;;;;;5069374;28;20087;-57
2023/06/28 09:15:45;;;;;;;5.15;1.40;;;;;;;;;;5083034;28;20107;-52
2023/06/28 09:18:10;;;;;;;4.47;1.38;;;;;;;;;;5070183;28;20120;-58
2023/06/28 09:20:36;;;;;;;2.40;1.23;;;;;;;;;;5076487;28;20442;-55
2023/06/28 09:23:01;;;;;;;2.97;1.20;;;;;;;;;;5076841;28;20295;-58
2023/06/28 09:25:27;;;;;;;2.03;1.08;;;;;;;;;;5075970;28;20483;-59
2023/06/28 09:27:54;;;;;;;2.30;1.20;;;;;;;;;;5067683;28;20090;-56
2023/06/28 09:30:20;;;;;;;6.57;1.25;;;;;;;;;;5082244;28;20032;-56
2023/06/28 09:32:50;;;;;;;9.40;1.83;;;;;;;;;;5068529;28;20513;-58
2023/06/28 09:35:15;;;;;;;1.83;1.33;;;;;;;;;;5062229;28;20448;-58
2023/06/28 09:37:41;;;;;;;3.30;1.48;;;;;;;;;;5078759;28;20111;-56
2023/06/28 09:40:06;;;;;;;4.83;1.17;;;;;;;;;;5077728;28;20017;-56
2023/06/28 09:42:32;;;;;;;3.63;1.10;;;;;;;;;;5080921;28;20101;-53
2023/06/28 09:44:57;;;;;;;8.43;1.77;;;;;;;;;;5082619;28;20529;-57
2023/06/28 09:47:30;;;;;;;2.03;0.97;;;;;;;;;;5074173;28;20045;-57
2023/06/28 09:49:56;;;;;;;4.82;1.33;;;;;;;;;;5062199;28;20933;-57
2023/06/28 09:52:22;;;;;;;2.78;1.10;;;;;;;;;;5062567;28;20045;-56
2023/06/28 09:54:49;;;;;;;8.60;0.95;;;;;;;;;;5061588;28;20229;-57
2023/06/28 09:57:15;;;;;;;3.05;1.05;;;;;;;;;;5061688;28;20376;-58
2023/06/28 09:59:41;;;;;;;4.75;1.08;;;;;;;;;;5052096;28;20423;-57
2023/06/28 10:02:07;;;;;;;2.35;1.00;;;;;;;;;;5048076;28;20290;-55
2023/06/28 10:04:36;;;;;;;4.95;0.90;;;;;;;;;;5050428;28;20680;-58
2023/06/28 10:07:03;;;;;;;6.38;1.10;;;;;;;;;;5048348;28;20491;-55
2023/06/28 10:09:38;;;;;;;3.50;1.42;;;;;;;;;;5048691;28;20025;-57
2023/06/28 10:12:08;;;;;;;1.83;1.15;;;;;;;;;;5054422;28;20028;-55
2023/06/28 10:14:36;;;;;;;1.40;0.90;;;;;;;;;;5066730;28;20119;-52
2023/06/28 10:17:01;;;;;;;5.50;0.93;;;;;;;;;;5068294;28;20079;-58
2023/06/28 10:19:28;;;;;;;2.40;1.20;;;;;;;;;;5062400;28;20549;-58
2023/06/28 10:21:55;;;;;;;2.80;1.10;;;;;;;;;;5055906;28;20507;-55
2023/06/28 10:24:20;;;;;;;5.10;1.20;;;;;;;;;;5049740;28;20017;-56
2023/06/28 10:26:46;;;;;;;5.20;1.10;;;;;;;;;;5056435;28;20028;-51
2023/06/28 10:29:11;;;;;;;7.15;1.10;;;;;;;;;;5049100;28;20050;-56
2023/06/28 10:31:37;;;;;;;2.65;0.80;;;;;;;;;;5047732;28;20032;-57
2023/06/28 10:34:03;;;;;;;1.20;0.70;;;;;;;;;;5058736;28;20029;-56
2023/06/28 10:36:29;;;;;;;4.30;1.15;;;;;;;;;;5052060;28;20488;-58
2023/06/28 10:38:55;;;;;;;0.82;0.75;;;;;;;;;;5063008;28;20029;-52
2023/06/28 10:41:21;;;;;;;2.77;1.30;;;;;;;;;;5058618;28;20025;-56
2023/06/28 10:43:46;;;;;;;4.38;1.00;;;;;;;;;;5055150;28;20257;-59
2023/06/28 10:46:25;;;;;;;8.10;1.52;;;;;;;;;;5063925;28;20031;-48
2023/06/28 10:48:59;;;;;;;5.72;1.10;;;;;;;;;;5060465;28;20064;-55
2023/06/28 10:51:28;;;;;;;5.57;1.38;;;;;;;;;;5062156;28;20032;-56
2023/06/28 10:54:04;;;;;;;3.67;0.93;;;;;;;;;;5050948;28;20033;-57
2023/06/28 10:56:34;;;;;;;3.40;0.90;;;;;;;;;;5061672;28;20017;-50
2023/06/28 10:59:04;;;;;;;15.23;1.48;;;;;;;;;;5059899;28;20056;-51
2023/06/28 11:01:34;;;;;;;1.75;0.90;;;;;;;;;;5056449;28;20036;-57
2023/06/28 11:04:20;;;;;;;2.35;1.00;;;;;;;;;;5067372;28;20510;-59
2023/06/28 11:06:45;;;;;;;3.90;1.15;;;;;;;;;;5059296;28;20036;-55
2023/06/28 11:09:14;;;;;;;1.50;1.00;;;;;;;;;;5065777;28;20113;-52
2023/06/28 11:11:41;;;;;;;3.45;0.93;;;;;;;;;;5047759;28;20062;-55
2023/06/28 11:14:17;;;;;;;2.95;1.20;;;;;;;;;;5047504;28;20056;-52
2023/06/28 11:16:42;;;;;;;2.08;0.70;;;;;;;;;;5062747;28;20028;-59
2023/06/28 11:19:13;;;;;;;2.07;1.00;;;;;;;;;;5056231;28;20017;-52
2023/06/28 11:21:38;;;;;;;1.48;0.82;;;;;;;;;;5065187;28;20668;-59
2023/06/28 11:24:04;;;;;;;1.13;0.73;;;;;;;;;;5057735;28;20023;-53
2023/06/28 11:26:34;;;;;;;1.70;1.02;;;;;;;;;;5060881;28;20021;-58
2023/06/28 11:29:00;;;;;;;2.05;1.10;;;;;;;;;;5064539;28;20529;-50
2023/06/28 11:31:45;;;;;;;2.60;0.90;;;;;;;;;;5058187;28;20115;-55
2023/06/28 11:34:12;;;;;;;4.38;0.82;;;;;;;;;;5032598;28;20745;-56
2023/06/28 11:36:39;;;;;;;3.67;0.95;;;;;;;;;;5040405;28;20385;-53
2023/06/28 11:39:06;;;;;;;3.90;0.95;;;;;;;;;;5043516;28;20119;-52
2023/06/28 11:41:35;;;;;;;1.38;1.02;;;;;;;;;;5035446;28;20396;-54
2023/06/28 11:44:07;;;;;;;1.67;1.15;;;;;;;;;;5042274;28;20021;-53
2023/06/28 11:46:33;;;;;;;5.55;1.10;;;;;;;;;;5039067;28;20116;-57
2023/06/28 11:49:01;;;;;;;9.93;1.33;;;;;;;;;;5040288;28;20064;-60
2023/06/28 11:51:27;;;;;;;4.75;1.30;;;;;;;;;;5040032;28;20040;-50
2023/06/28 11:53:55;;;;;;;3.65;1.08;;;;;;;;;;5038228;28;20029;-56
2023/06/28 11:56:31;;;;;;;2.17;1.35;;;;;;;;;;5043356;28;20431;-55
2023/06/28 11:58:57;;;;;;;6.93;0.90;;;;;;;;;;5040473;28;20045;-52
2023/06/28 12:01:22;;;;;;;3.60;1.35;;;;;;;;;;5042467;28;20095;-57
2023/06/28 12:03:48;;;;;;;2.47;1.20;;;;;;;;;;5041703;28;20461;-50
2023/06/28 12:06:13;;;;;;;2.95;1.20;;;;;;;;;;5037930;28;20029;-57
2023/06/28 12:08:40;;;;;;;2.30;1.20;;;;;;;;;;5037199;28;20035;-57
2023/06/28 12:11:13;;;;;;;5.47;1.33;;;;;;;;;;5049977;28;20253;-53
2023/06/28 12:13:39;;;;;;;3.08;1.70;;;;;;;;;;5062918;28;20034;-54
2023/06/28 12:16:12;;;;;;;3.35;1.33;;;;;;;;;;5062966;28;20025;-58
2023/06/28 12:18:57;;;;;;;4.78;1.30;;;;;;;;;;5055107;28;20047;-50
2023/06/28 12:21:23;;;;;;;7.88;2.45;;;;;;;;;;5073107;28;20115;-56
2023/06/28 12:23:49;;;;;;;3.67;1.60;;;;;;;;;;5055229;28;20195;-58
2023/06/28 12:26:14;;;;;;;6.00;1.60;;;;;;;;;;5069396;28;20134;-58
2023/06/28 12:28:40;;;;;;;1.37;1.20;;;;;;;;;;5054441;28;20051;-51
2023/06/28 12:31:05;;;;;;;5.80;1.40;;;;;;;;;;5064485;28;20269;-53
2023/06/28 12:33:34;;;;;;;3.67;1.40;;;;;;;;;;5062873;28;20245;-57
2023/06/28 12:35:59;;;;;;;2.00;1.35;;;;;;;;;;5060440;28;20446;-56
2023/06/28 12:38:25;;;;;;;2.58;1.13;;;;;;;;;;5062069;28;20728;-54
2023/06/28 12:40:50;;;;;;;1.55;1.10;;;;;;;;;;5062267;28;20044;-54
2023/06/28 12:43:21;;;;;;;1.50;1.27;;;;;;;;;;5059252;28;20028;-58
2023/06/28 12:45:49;;;;;;;4.00;1.30;;;;;;;;;;5057927;28;20021;-55
2023/06/28 12:48:16;;;;;;;1.98;1.10;;;;;;;;;;5052139;28;20463;-52
2023/06/28 12:50:42;;;;;;;5.20;1.40;;;;;;;;;;5046192;28;20033;-58
2023/06/28 12:53:07;;;;;;;3.00;1.35;;;;;;;;;;5048122;28;20028;-55
2023/06/28 12:55:32;;;;;;;1.42;1.17;;;;;;;;;;5053766;28;20106;-56
2023/06/28 12:57:57;;;;;;;7.63;1.47;;;;;;;;;;5057837;28;20021;-52
2023/06/28 13:00:23;;;;;;;2.00;1.30;;;;;;;;;;5052640;28;20085;-53
2023/06/28 13:02:48;;;;;;;1.77;1.13;;;;;;;;;;5055119;28;20602;-54
2023/06/28 13:05:13;;;;;;;3.60;1.37;;;;;;;;;;5045591;28;20330;-56
2023/06/28 13:07:38;;;;;;;4.03;1.00;;;;;;;;;;5045981;28;20304;-58
2023/06/28 13:10:05;;;;;;;2.77;1.17;;;;;;;;;;5048690;28;20443;-51
2023/06/28 13:12:30;;;;;;;4.78;1.45;;;;;;;;;;5055602;28;20326;-53
2023/06/28 13:14:56;;;;;;;1.40;0.98;;;;;;;;;;5058191;28;20033;-57
2023/06/28 13:17:21;;;;;;;2.05;1.13;;;;;;;;;;5047830;28;20033;-54
2023/06/28 13:19:47;;;;;;;1.05;0.95;;;;;;;;;;5045798;28;20036;-55
2023/06/28 13:22:12;;;;;;;6.47;1.23;;;;;;;;;;5051184;28;20020;-57
2023/06/28 13:24:37;;;;;;;3.38;1.20;;;;;;;;;;5050658;28;20261;-56
2023/06/28 13:27:03;;;;;;;3.23;1.03;;;;;;;;;;5050611;28;20434;-58
2023/06/28 13:29:28;;;;;;;1.55;1.05;;;;;;;;;;5049492;28;20017;-55
2023/06/28 13:31:53;;;;;;;5.77;1.40;;;;;;;;;;5052921;28;20489;-58
2023/06/28 13:34:18;;;;;;;4.07;1.13;;;;;;;;;;5056934;28;20266;-58
2023/06/28 13:36:44;;;;;;;2.97;1.15;;;;;;;;;;5050502;28;20632;-54
2023/06/28 13:39:09;;;;;;;4.28;1.00;;;;;;;;;;5069098;28;20047;-57
2023/06/28 13:41:35;;;;;;;7.40;1.70;;;;;;;;;;5067070;28;20459;-58
2023/06/28 13:44:00;;;;;;;6.95;1.15;;;;;;;;;;5064894;28;20021;-54
2023/06/28 13:46:25;;;;;;;3.47;1.00;;;;;;;;;;5053687;28;20028;-55
2023/06/28 13:48:51;;;;;;;6.57;1.20;;;;;;;;;;5042604;28;20691;-51
2023/06/28 13:51:16;;;;;;;5.50;1.33;;;;;;;;;;5056271;28;20260;-56
2023/06/28 13:53:41;;;;;;;1.73;1.13;;;;;;;;;;5055727;28;20300;-57
2023/06/28 13:56:06;;;;;;;15.07;2.43;;;;;;;;;;5059848;28;20249;-58
2023/06/28 13:58:33;;;;;;;1.83;0.98;;;;;;;;;;5062140;28;20272;-53
2023/06/28 14:00:59;;;;;;;3.97;0.98;;;;;;;;;;5054989;28;20032;-58
2023/06/28 14:03:25;;;;;;;2.45;1.20;;;;;;;;;;5052076;28;20376;-51
2023/06/28 14:05:50;;;;;;;2.10;1.05;;;;;;;;;;5063726;28;20052;-57
2023/06/28 14:08:16;;;;;;;9.02;1.20;;;;;;;;;;5049417;28;20033;-54
2023/06/28 14:10:41;;;;;;;1.42;0.82;;;;;;;;;;5054226;28;20021;-57
2023/06/28 14:13:06;;;;;;;1.63;0.80;;;;;;;;;;5060925;28;20134;-58
2023/06/28 14:15:32;;;;;;;6.80;1.40;;;;;;;;;;5061077;28;20120;-51
2023/06/28 14:17:57;;;;;;;3.20;1.00;;;;;;;;;;5061222;28;20256;-56
2023/06/28 14:20:22;;;;;;;4.70;0.90;;;;;;;;;;5061048;28;20288;-58
2023/06/28 14:22:50;;;;;;;5.90;1.30;;;;;;;;;;5059893;28;20298;-60
2023/06/28 14:25:16;;;;;;;1.70;1.13;;;;;;;;;;5054402;28;20751;-57
2023/06/28 14:27:41;;;;;;;8.68;1.15;;;;;;;;;;5050247;28;20313;-57
2023/06/28 14:30:07;;;;;;;7.25;1.20;;;;;;;;;;5055292;28;20434;-54
2023/06/28 14:32:32;;;;;;;2.17;1.17;;;;;;;;;;5057331;28;20405;-57
2023/06/28 14:34:57;;;;;;;2.87;0.80;;;;;;;;;;5059904;28;20021;-55
2023/06/28 14:37:23;;;;;;;3.13;1.20;;;;;;;;;;5067526;28;20351;-55